Time,TemperatureF,DewpointF,PressureIn,WindDirection,WindDirectionDegrees,WindSpeedMPH,WindSpeedGustMPH,Humidity,HourlyPrecipIn,Conditions,Clouds,dailyrainin,SoftwareType,DateUTC
2013-01-31 00:00:00,69.7,66.6,29.93,South,172,0.0,0.0,90,0.00,,,0.00,VWS V14.00,2013-01-31 05:00:00,
2013-01-31 00:02:00,69.3,66.2,29.94,South,172,0.0,0.0,90,0.00,,,0.00,VWS V14.00,2013-01-31 05:02:00,
2013-01-31 00:07:00,69.0,65.9,29.94,South,172,0.0,0.0,90,0.00,,,0.00,VWS V14.00,2013-01-31 05:07:00,
2013-01-31 00:12:00,68.9,66.2,29.94,South,172,0.0,0.0,91,0.00,,,0.00,VWS V14.00,2013-01-31 05:12:00,
2013-01-31 00:17:00,68.8,66.1,29.94,South,172,0.0,0.0,91,0.00,,,0.00,VWS V14.00,2013-01-31 05:17:00,
2013-01-31 00:22:00,68.6,65.9,29.94,South,172,0.0,0.0,91,0.00,,,0.00,VWS V14.00,2013-01-31 05:22:00,
2013-01-31 00:27:00,68.6,65.9,29.93,South,172,0.0,0.0,91,0.00,,,0.00,VWS V14.00,2013-01-31 05:27:00,
2013-01-31 00:32:00,68.6,66.2,29.93,South,172,0.0,0.0,92,0.00,,,0.00,VWS V14.00,2013-01-31 05:32:00,
2013-01-31 00:37:00,68.7,66.3,29.93,SSE,164,4.0,5.0,92,0.00,,,0.00,VWS V14.00,2013-01-31 05:37:00,
2013-01-31 00:42:00,68.8,66.4,29.93,SSE,162,0.0,5.0,92,0.00,,,0.00,VWS V14.00,2013-01-31 05:42:00,
2013-01-31 00:47:00,68.8,66.4,29.93,SSE,161,0.0,1.0,92,0.00,,,0.00,VWS V14.00,2013-01-31 05:47:00,
2013-01-31 00:52:00,68.8,66.4,29.93,SSE,161,0.0,2.0,92,0.00,,,0.00,VWS V14.00,2013-01-31 05:52:00,
2013-01-31 00:57:00,68.7,66.3,29.92,SSE,161,0.0,2.0,92,0.00,,,0.00,VWS V14.00,2013-01-31 05:57:00,
2013-01-31 01:02:00,68.6,66.2,29.92,SSE,161,1.0,1.0,92,0.00,,,0.00,VWS V14.00,2013-01-31 06:02:00,
2013-01-31 01:07:00,68.7,66.6,29.92,SSE,164,0.0,5.0,93,0.00,,,0.00,VWS V14.00,2013-01-31 06:07:00,
2013-01-31 01:12:00,68.7,66.6,29.92,SSE,166,1.0,5.0,93,0.00,,,0.00,VWS V14.00,2013-01-31 06:12:00,
2013-01-31 01:17:00,68.8,66.7,29.92,SSE,166,0.0,2.0,93,0.00,,,0.00,VWS V14.00,2013-01-31 06:17:00,
2013-01-31 01:22:00,68.9,66.8,29.92,SSE,166,2.0,4.0,93,0.00,,,0.00,VWS V14.00,2013-01-31 06:22:00,
2013-01-31 01:27:00,69.0,66.9,29.92,South,169,2.0,5.0,93,0.00,,,0.00,VWS V14.00,2013-01-31 06:27:00,
2013-01-31 01:32:00,69.1,67.0,29.92,South,169,0.0,4.0,93,0.00,,,0.00,VWS V14.00,2013-01-31 06:32:00,
2013-01-31 01:37:00,69.2,67.1,29.92,South,171,0.0,5.0,93,0.00,,,0.00,VWS V14.00,2013-01-31 06:37:00,
2013-01-31 01:42:00,69.4,67.6,29.92,South,171,1.0,5.0,94,0.00,,,0.00,VWS V14.00,2013-01-31 06:42:00,
2013-01-31 01:47:00,69.5,67.7,29.92,South,172,2.0,5.0,94,0.00,,,0.00,VWS V14.00,2013-01-31 06:47:00,
2013-01-31 01:52:00,69.5,67.4,29.92,South,172,2.0,5.0,93,0.00,,,0.00,VWS V14.00,2013-01-31 06:52:00,
2013-01-31 01:57:00,69.6,67.8,29.91,South,171,1.0,5.0,94,0.00,,,0.00,VWS V14.00,2013-01-31 06:57:00,
2013-01-31 02:02:00,69.6,67.5,29.91,South,171,0.0,2.0,93,0.00,,,0.00,VWS V14.00,2013-01-31 07:02:00,
2013-01-31 02:07:00,69.7,67.6,29.91,South,171,4.0,4.0,93,0.00,,,0.00,VWS V14.00,2013-01-31 07:07:00,
2013-01-31 02:12:00,69.7,67.6,29.91,South,173,0.0,5.0,93,0.00,,,0.00,VWS V14.00,2013-01-31 07:12:00,
2013-01-31 02:17:00,69.7,67.6,29.91,South,173,0.0,2.0,93,0.00,,,0.00,VWS V14.00,2013-01-31 07:17:00,
2013-01-31 02:22:00,69.8,67.7,29.92,South,173,2.0,2.0,93,0.00,,,0.00,VWS V14.00,2013-01-31 07:22:00,
2013-01-31 02:27:00,69.8,67.7,29.92,South,173,0.0,2.0,93,0.00,,,0.00,VWS V14.00,2013-01-31 07:27:00,
2013-01-31 02:32:00,69.9,68.1,29.91,South,173,1.0,1.0,94,0.00,,,0.00,VWS V14.00,2013-01-31 07:32:00,
2013-01-31 02:37:00,70.0,68.2,29.91,South,173,0.0,4.0,94,0.00,,,0.00,VWS V14.00,2013-01-31 07:37:00,
2013-01-31 02:42:00,70.1,68.3,29.91,South,173,1.0,5.0,94,0.00,,,0.00,VWS V14.00,2013-01-31 07:42:00,
2013-01-31 02:47:00,70.1,68.3,29.91,South,173,1.0,1.0,94,0.00,,,0.00,VWS V14.00,2013-01-31 07:47:00,
2013-01-31 02:52:00,70.1,68.3,29.91,South,173,1.0,1.0,94,0.00,,,0.00,VWS V14.00,2013-01-31 07:52:00,
2013-01-31 02:57:00,70.1,68.3,29.91,South,173,1.0,1.0,94,0.00,,,0.00,VWS V14.00,2013-01-31 07:57:00,
2013-01-31 03:02:00,70.1,68.3,29.91,South,173,1.0,1.0,94,0.00,,,0.00,VWS V14.00,2013-01-31 08:02:00,
2013-01-31 03:07:00,70.1,68.3,29.91,South,173,1.0,1.0,94,0.00,,,0.00,VWS V14.00,2013-01-31 08:07:00,
2013-01-31 03:12:00,70.1,68.3,29.90,South,173,1.0,1.0,94,0.00,,,0.00,VWS V14.00,2013-01-31 08:12:00,
2013-01-31 03:17:00,70.1,68.3,29.90,South,173,1.0,1.0,94,0.00,,,0.00,VWS V14.00,2013-01-31 08:17:00,
2013-01-31 03:22:00,70.1,68.3,29.90,South,173,1.0,1.0,94,0.00,,,0.00,VWS V14.00,2013-01-31 08:22:00,
2013-01-31 03:27:00,70.1,68.3,29.90,South,173,1.0,1.0,94,0.00,,,0.00,VWS V14.00,2013-01-31 08:27:00,
2013-01-31 03:32:00,70.1,68.3,29.90,South,173,1.0,1.0,94,0.00,,,0.00,VWS V14.00,2013-01-31 08:32:00,
2013-01-31 03:37:00,70.1,68.3,29.90,South,173,1.0,1.0,94,0.00,,,0.00,VWS V14.00,2013-01-31 08:37:00,
2013-01-31 03:42:00,70.1,68.3,29.90,South,173,1.0,1.0,94,0.00,,,0.00,VWS V14.00,2013-01-31 08:42:00,
2013-01-31 03:47:00,70.1,68.3,29.90,South,173,1.0,1.0,94,0.00,,,0.00,VWS V14.00,2013-01-31 08:47:00,
2013-01-31 03:52:00,70.1,68.3,29.90,South,173,1.0,1.0,94,0.00,,,0.00,VWS V14.00,2013-01-31 08:52:00,
2013-01-31 03:57:00,70.1,68.3,29.90,South,173,1.0,1.0,94,0.00,,,0.00,VWS V14.00,2013-01-31 08:57:00,
2013-01-31 04:02:00,70.1,68.3,29.90,South,173,1.0,1.0,94,0.00,,,0.00,VWS V14.00,2013-01-31 09:02:00,
2013-01-31 04:07:00,70.1,68.3,29.90,South,173,1.0,1.0,94,0.00,,,0.00,VWS V14.00,2013-01-31 09:07:00,
2013-01-31 04:12:00,70.1,68.3,29.90,South,173,1.0,1.0,94,0.00,,,0.00,VWS V14.00,2013-01-31 09:12:00,
2013-01-31 04:17:00,70.1,68.3,29.90,South,173,1.0,1.0,94,0.00,,,0.00,VWS V14.00,2013-01-31 09:17:00,
2013-01-31 04:22:00,70.1,68.3,29.90,South,173,1.0,1.0,94,0.00,,,0.00,VWS V14.00,2013-01-31 09:22:00,
2013-01-31 04:27:00,70.1,68.3,29.90,South,173,1.0,1.0,94,0.00,,,0.00,VWS V14.00,2013-01-31 09:27:00,
2013-01-31 04:32:00,70.1,68.3,29.90,South,173,1.0,1.0,94,0.00,,,0.00,VWS V14.00,2013-01-31 09:32:00,
2013-01-31 04:37:00,70.1,68.3,29.91,South,173,1.0,1.0,94,0.00,,,0.00,VWS V14.00,2013-01-31 09:37:00,
2013-01-31 04:42:00,70.1,68.3,29.93,South,173,1.0,1.0,94,0.00,,,0.00,VWS V14.00,2013-01-31 09:42:00,
2013-01-31 04:47:00,70.1,68.3,29.93,South,173,1.0,1.0,94,0.00,,,0.00,VWS V14.00,2013-01-31 09:47:00,
2013-01-31 04:52:00,70.1,68.3,29.94,South,173,1.0,1.0,94,0.00,,,0.00,VWS V14.00,2013-01-31 09:52:00,
2013-01-31 04:57:00,70.1,68.3,29.94,South,173,1.0,1.0,94,0.00,,,0.00,VWS V14.00,2013-01-31 09:57:00,
2013-01-31 05:02:00,70.1,68.3,29.95,South,173,1.0,1.0,94,0.00,,,0.00,VWS V14.00,2013-01-31 10:02:00,
2013-01-31 05:07:00,70.1,68.3,29.95,South,173,1.0,1.0,94,0.00,,,0.00,VWS V14.00,2013-01-31 10:07:00,
2013-01-31 05:12:00,70.1,68.3,29.95,South,173,1.0,1.0,94,0.00,,,0.00,VWS V14.00,2013-01-31 10:12:00,
2013-01-31 05:17:00,70.1,68.3,29.96,South,173,1.0,1.0,94,0.00,,,0.00,VWS V14.00,2013-01-31 10:17:00,
2013-01-31 05:22:00,70.1,68.3,29.96,South,173,1.0,1.0,94,0.00,,,0.00,VWS V14.00,2013-01-31 10:22:00,
2013-01-31 05:27:00,70.1,68.3,29.96,South,173,1.0,1.0,94,0.00,,,0.00,VWS V14.00,2013-01-31 10:27:00,
2013-01-31 05:32:00,70.1,68.3,29.97,South,173,1.0,1.0,94,0.00,,,0.00,VWS V14.00,2013-01-31 10:32:00,
2013-01-31 05:37:00,70.1,68.3,29.97,South,173,1.0,1.0,94,0.00,,,0.00,VWS V14.00,2013-01-31 10:37:00,
2013-01-31 05:42:00,70.1,68.3,29.97,South,173,1.0,1.0,94,0.00,,,0.00,VWS V14.00,2013-01-31 10:42:00,
2013-01-31 05:47:00,70.1,68.3,29.98,South,173,1.0,1.0,94,0.00,,,0.00,VWS V14.00,2013-01-31 10:47:00,
2013-01-31 05:52:00,70.1,68.3,29.98,South,173,1.0,1.0,94,0.00,,,0.00,VWS V14.00,2013-01-31 10:52:00,
2013-01-31 05:57:00,70.1,68.3,29.98,South,173,1.0,1.0,94,0.00,,,0.00,VWS V14.00,2013-01-31 10:57:00,
2013-01-31 06:02:00,70.1,68.3,29.99,South,173,1.0,1.0,94,0.00,,,0.00,VWS V14.00,2013-01-31 11:02:00,
2013-01-31 06:07:00,70.1,68.3,29.99,South,173,1.0,1.0,94,0.00,,,0.00,VWS V14.00,2013-01-31 11:07:00,
2013-01-31 06:12:00,70.1,68.3,29.99,South,173,1.0,1.0,94,0.00,,,0.00,VWS V14.00,2013-01-31 11:12:00,
2013-01-31 06:17:00,70.1,68.3,30.00,South,173,1.0,1.0,94,0.00,,,0.00,VWS V14.00,2013-01-31 11:17:00,
2013-01-31 06:22:00,70.1,68.3,30.00,South,173,1.0,1.0,94,0.00,,,0.00,VWS V14.00,2013-01-31 11:22:00,
2013-01-31 06:27:00,70.1,68.3,30.00,South,173,1.0,1.0,94,0.00,,,0.00,VWS V14.00,2013-01-31 11:27:00,
2013-01-31 06:32:00,70.1,68.3,30.00,South,173,1.0,1.0,94,0.00,,,0.00,VWS V14.00,2013-01-31 11:32:00,
2013-01-31 06:37:00,70.1,68.3,30.01,South,173,1.0,1.0,94,0.00,,,0.00,VWS V14.00,2013-01-31 11:37:00,
2013-01-31 06:42:00,70.1,68.3,30.01,South,173,1.0,1.0,94,0.00,,,0.00,VWS V14.00,2013-01-31 11:42:00,
2013-01-31 06:47:00,70.1,68.3,30.01,South,173,1.0,1.0,94,0.00,,,0.00,VWS V14.00,2013-01-31 11:47:00,
2013-01-31 06:52:00,70.1,68.3,30.01,South,173,1.0,1.0,94,0.00,,,0.00,VWS V14.00,2013-01-31 11:52:00,
2013-01-31 06:57:00,70.1,68.3,30.01,South,173,1.0,1.0,94,0.00,,,0.00,VWS V14.00,2013-01-31 11:57:00,
2013-01-31 07:02:00,70.1,68.3,30.01,South,173,1.0,1.0,94,0.00,,,0.00,VWS V14.00,2013-01-31 12:02:00,
2013-01-31 07:07:00,70.1,68.3,30.02,South,173,1.0,1.0,94,0.00,,,0.00,VWS V14.00,2013-01-31 12:07:00,
2013-01-31 07:11:00,70.1,68.3,30.02,South,173,1.0,1.0,94,0.00,,,0.00,VWS V14.00,2013-01-31 12:11:00,
2013-01-31 07:16:00,70.1,68.3,30.03,South,173,1.0,1.0,94,0.00,,,0.00,VWS V14.00,2013-01-31 12:16:00,
2013-01-31 07:21:00,70.1,68.3,30.04,South,173,1.0,1.0,94,0.00,,,0.00,VWS V14.00,2013-01-31 12:21:00,
2013-01-31 07:26:00,70.1,68.3,30.04,South,173,1.0,1.0,94,0.00,,,0.00,VWS V14.00,2013-01-31 12:26:00,
2013-01-31 07:31:00,70.1,68.3,30.04,South,173,1.0,1.0,94,0.00,,,0.00,VWS V14.00,2013-01-31 12:31:00,
2013-01-31 07:36:00,70.1,68.3,30.04,South,173,1.0,1.0,94,0.00,,,0.00,VWS V14.00,2013-01-31 12:36:00,
2013-01-31 07:41:00,70.1,68.3,30.04,South,173,1.0,1.0,94,0.00,,,0.00,VWS V14.00,2013-01-31 12:41:00,
2013-01-31 07:46:00,70.1,68.3,30.04,South,173,1.0,1.0,94,0.00,,,0.00,VWS V14.00,2013-01-31 12:46:00,
2013-01-31 07:51:00,70.1,68.3,30.05,South,173,1.0,1.0,94,0.00,,,0.00,VWS V14.00,2013-01-31 12:51:00,
2013-01-31 07:56:00,70.1,68.3,30.05,South,173,1.0,1.0,94,0.00,,,0.00,VWS V14.00,2013-01-31 12:56:00,
2013-01-31 08:01:00,70.1,68.3,30.05,South,173,1.0,1.0,94,0.00,,,0.00,VWS V14.00,2013-01-31 13:01:00,
2013-01-31 08:06:00,70.1,68.3,30.05,South,173,1.0,1.0,94,0.00,,,0.00,VWS V14.00,2013-01-31 13:06:00,
2013-01-31 08:11:00,70.1,68.3,30.05,South,173,1.0,1.0,94,0.00,,,0.00,VWS V14.00,2013-01-31 13:11:00,
2013-01-31 08:16:00,70.1,68.3,30.05,South,173,1.0,1.0,94,0.00,,,0.00,VWS V14.00,2013-01-31 13:16:00,
2013-01-31 08:21:00,70.1,68.3,30.05,South,173,1.0,1.0,94,0.00,,,0.00,VWS V14.00,2013-01-31 13:21:00,
2013-01-31 08:26:00,70.1,68.3,30.05,South,173,1.0,1.0,94,0.00,,,0.00,VWS V14.00,2013-01-31 13:26:00,
2013-01-31 08:31:00,70.1,68.3,30.06,South,173,1.0,1.0,94,0.00,,,0.00,VWS V14.00,2013-01-31 13:31:00,
2013-01-31 08:36:00,70.1,68.3,30.06,South,173,1.0,1.0,94,0.00,,,0.00,VWS V14.00,2013-01-31 13:36:00,
2013-01-31 08:41:00,70.1,68.3,30.06,South,173,1.0,1.0,94,0.00,,,0.00,VWS V14.00,2013-01-31 13:41:00,
2013-01-31 08:46:00,70.1,68.3,30.06,South,173,1.0,1.0,94,0.00,,,0.00,VWS V14.00,2013-01-31 13:46:00,
2013-01-31 08:51:00,70.1,68.3,30.06,South,173,1.0,1.0,94,0.00,,,0.00,VWS V14.00,2013-01-31 13:51:00,
2013-01-31 08:56:00,70.1,68.3,30.06,South,173,1.0,1.0,94,0.00,,,0.00,VWS V14.00,2013-01-31 13:56:00,
2013-01-31 09:01:00,70.1,68.3,30.07,South,173,1.0,1.0,94,0.00,,,0.00,VWS V14.00,2013-01-31 14:01:00,
2013-01-31 09:06:00,70.1,68.3,30.07,South,173,1.0,1.0,94,0.00,,,0.00,VWS V14.00,2013-01-31 14:06:00,
2013-01-31 09:11:00,70.1,68.3,30.08,South,173,1.0,1.0,94,0.00,,,0.00,VWS V14.00,2013-01-31 14:11:00,
2013-01-31 09:16:00,70.1,68.3,30.07,South,173,1.0,1.0,94,0.00,,,0.00,VWS V14.00,2013-01-31 14:16:00,
2013-01-31 09:21:00,70.1,68.3,30.07,South,173,1.0,1.0,94,0.00,,,0.00,VWS V14.00,2013-01-31 14:21:00,
2013-01-31 09:26:00,70.1,68.3,30.07,South,173,1.0,1.0,94,0.00,,,0.00,VWS V14.00,2013-01-31 14:26:00,
2013-01-31 09:31:00,70.1,68.3,30.08,South,173,1.0,1.0,94,0.00,,,0.00,VWS V14.00,2013-01-31 14:31:00,
2013-01-31 09:36:00,70.1,68.3,30.08,South,173,1.0,1.0,94,0.00,,,0.00,VWS V14.00,2013-01-31 14:36:00,
2013-01-31 09:41:00,70.1,68.3,30.08,South,173,1.0,1.0,94,0.00,,,0.00,VWS V14.00,2013-01-31 14:41:00,
2013-01-31 09:46:00,70.1,68.3,30.08,South,173,1.0,1.0,94,0.00,,,0.00,VWS V14.00,2013-01-31 14:46:00,
2013-01-31 09:51:00,70.1,68.3,30.09,South,173,1.0,1.0,94,0.00,,,0.00,VWS V14.00,2013-01-31 14:51:00,
2013-01-31 09:56:00,70.1,68.3,30.09,South,173,1.0,1.0,94,0.00,,,0.00,VWS V14.00,2013-01-31 14:56:00,
2013-01-31 10:01:00,70.1,68.3,30.09,South,173,1.0,1.0,94,0.00,,,0.00,VWS V14.00,2013-01-31 15:01:00,
2013-01-31 10:06:00,70.1,68.3,30.09,South,173,1.0,1.0,94,0.00,,,0.00,VWS V14.00,2013-01-31 15:06:00,
2013-01-31 10:11:00,70.1,68.3,30.09,South,173,1.0,1.0,94,0.00,,,0.00,VWS V14.00,2013-01-31 15:11:00,
2013-01-31 10:16:00,70.1,68.3,30.08,South,173,1.0,1.0,94,0.00,,,0.00,VWS V14.00,2013-01-31 15:16:00,
2013-01-31 10:21:00,70.1,68.3,30.09,South,173,1.0,1.0,94,0.00,,,0.00,VWS V14.00,2013-01-31 15:21:00,
2013-01-31 10:26:00,70.1,68.3,30.08,South,173,1.0,1.0,94,0.00,,,0.00,VWS V14.00,2013-01-31 15:26:00,
2013-01-31 10:31:00,70.1,68.3,30.09,South,173,1.0,1.0,94,0.00,,,0.00,VWS V14.00,2013-01-31 15:31:00,
2013-01-31 10:36:00,70.1,68.3,30.09,South,173,1.0,1.0,94,0.00,,,0.00,VWS V14.00,2013-01-31 15:36:00,
2013-01-31 10:41:00,70.1,68.3,30.09,South,173,1.0,1.0,94,0.00,,,0.00,VWS V14.00,2013-01-31 15:41:00,
2013-01-31 10:46:00,70.1,68.3,30.11,South,173,1.0,1.0,94,0.00,,,0.00,VWS V14.00,2013-01-31 15:46:00,
2013-01-31 10:51:00,70.1,68.3,30.10,South,173,1.0,1.0,94,0.00,,,0.00,VWS V14.00,2013-01-31 15:51:00,
2013-01-31 10:56:00,70.1,68.3,30.11,South,173,1.0,1.0,94,0.00,,,0.00,VWS V14.00,2013-01-31 15:56:00,
2013-01-31 11:01:00,70.1,68.3,30.10,South,173,1.0,1.0,94,0.00,,,0.00,VWS V14.00,2013-01-31 16:01:00,
2013-01-31 11:06:00,70.1,68.3,30.10,South,173,1.0,1.0,94,0.00,,,0.00,VWS V14.00,2013-01-31 16:06:00,
2013-01-31 11:11:00,70.1,68.3,30.09,South,173,1.0,1.0,94,0.00,,,0.00,VWS V14.00,2013-01-31 16:11:00,
2013-01-31 11:16:00,70.1,68.3,30.10,South,173,1.0,1.0,94,0.00,,,0.00,VWS V14.00,2013-01-31 16:16:00,
2013-01-31 11:21:00,70.1,68.3,30.09,South,173,1.0,1.0,94,0.00,,,0.00,VWS V14.00,2013-01-31 16:21:00,
2013-01-31 11:26:00,70.1,68.3,30.09,South,173,1.0,1.0,94,0.00,,,0.00,VWS V14.00,2013-01-31 16:26:00,
2013-01-31 11:31:00,70.1,68.3,30.09,South,173,1.0,1.0,94,0.00,,,0.00,VWS V14.00,2013-01-31 16:31:00,
2013-01-31 11:36:00,70.1,68.3,30.09,South,173,1.0,1.0,94,0.00,,,0.00,VWS V14.00,2013-01-31 16:36:00,
2013-01-31 11:41:00,70.1,68.3,30.09,South,173,1.0,1.0,94,0.00,,,0.00,VWS V14.00,2013-01-31 16:41:00,
2013-01-31 11:46:00,70.1,68.3,30.09,South,173,1.0,1.0,94,0.00,,,0.00,VWS V14.00,2013-01-31 16:46:00,
2013-01-31 11:51:00,70.1,68.3,30.09,South,173,1.0,1.0,94,0.00,,,0.00,VWS V14.00,2013-01-31 16:51:00,
2013-01-31 11:56:00,70.1,68.3,30.09,South,173,1.0,1.0,94,0.00,,,0.00,VWS V14.00,2013-01-31 16:56:00,
2013-01-31 12:01:00,70.1,68.3,30.08,South,173,1.0,1.0,94,0.00,,,0.00,VWS V14.00,2013-01-31 17:01:00,
2013-01-31 12:06:00,70.1,68.3,30.08,South,173,1.0,1.0,94,0.00,,,0.00,VWS V14.00,2013-01-31 17:06:00,
2013-01-31 12:11:00,70.1,68.3,30.08,South,173,1.0,1.0,94,0.00,,,0.00,VWS V14.00,2013-01-31 17:11:00,
2013-01-31 12:16:00,70.1,68.3,30.08,South,173,1.0,1.0,94,0.00,,,0.00,VWS V14.00,2013-01-31 17:16:00,
2013-01-31 12:21:00,70.1,68.3,30.07,South,173,1.0,1.0,94,0.00,,,0.00,VWS V14.00,2013-01-31 17:21:00,
2013-01-31 12:26:00,70.1,68.3,30.07,South,173,1.0,1.0,94,0.00,,,0.00,VWS V14.00,2013-01-31 17:26:00,
2013-01-31 12:31:00,70.1,68.3,30.08,South,173,1.0,1.0,94,0.00,,,0.00,VWS V14.00,2013-01-31 17:31:00,
2013-01-31 12:36:00,70.1,68.3,30.08,South,173,1.0,1.0,94,0.00,,,0.00,VWS V14.00,2013-01-31 17:36:00,
2013-01-31 12:41:00,70.1,68.3,30.07,South,173,1.0,1.0,94,0.00,,,0.00,VWS V14.00,2013-01-31 17:41:00,
2013-01-31 12:46:00,70.1,68.3,30.07,South,173,1.0,1.0,94,0.00,,,0.00,VWS V14.00,2013-01-31 17:46:00,
2013-01-31 12:51:00,70.1,68.3,30.06,South,173,1.0,1.0,94,0.00,,,0.00,VWS V14.00,2013-01-31 17:51:00,
2013-01-31 12:56:00,70.1,68.3,30.06,South,173,1.0,1.0,94,0.00,,,0.00,VWS V14.00,2013-01-31 17:56:00,
2013-01-31 13:01:00,70.1,68.3,30.06,South,173,1.0,1.0,94,0.00,,,0.00,VWS V14.00,2013-01-31 18:01:00,
2013-01-31 13:06:00,70.1,68.3,30.06,South,173,1.0,1.0,94,0.00,,,0.00,VWS V14.00,2013-01-31 18:06:00,
2013-01-31 13:11:00,70.1,68.3,30.05,South,173,1.0,1.0,94,0.00,,,0.00,VWS V14.00,2013-01-31 18:11:00,
2013-01-31 13:16:00,70.1,68.3,30.05,South,173,1.0,1.0,94,0.00,,,0.00,VWS V14.00,2013-01-31 18:16:00,
2013-01-31 13:21:00,70.1,68.3,30.05,South,173,1.0,1.0,94,0.00,,,0.00,VWS V14.00,2013-01-31 18:21:00,
2013-01-31 13:26:00,70.1,68.3,30.05,South,173,1.0,1.0,94,0.00,,,0.00,VWS V14.00,2013-01-31 18:26:00,
2013-01-31 13:31:00,70.1,68.3,30.05,South,173,1.0,1.0,94,0.00,,,0.00,VWS V14.00,2013-01-31 18:31:00,
2013-01-31 13:36:00,66.8,57.5,30.05,NNE,32,4.0,8.0,72,0.00,,,0.00,VWS V14.00,2013-01-31 18:36:00,
2013-01-31 13:41:00,66.8,57.9,30.05,NNE,15,0.0,8.0,73,0.00,,,0.00,VWS V14.00,2013-01-31 18:41:00,
2013-01-31 13:46:00,67.1,58.5,30.04,NNW,338,6.0,8.0,74,0.00,,,0.00,VWS V14.00,2013-01-31 18:46:00,
2013-01-31 13:51:00,67.4,57.7,30.04,NNW,342,8.0,13.0,71,0.00,,,0.00,VWS V14.00,2013-01-31 18:51:00,
2013-01-31 13:56:00,67.6,58.3,30.04,North,355,6.0,13.0,72,0.00,,,0.00,VWS V14.00,2013-01-31 18:56:00,
2013-01-31 14:01:00,67.9,58.9,30.04,North,355,1.0,6.0,73,0.00,,,0.00,VWS V14.00,2013-01-31 19:01:00,
2013-01-31 14:06:00,68.4,59.4,30.04,NNW,342,5.0,9.0,73,0.00,,,0.00,VWS V14.00,2013-01-31 19:06:00,
2013-01-31 14:11:00,68.7,58.9,30.04,NW,314,6.0,9.0,71,0.00,,,0.00,VWS V14.00,2013-01-31 19:11:00,
2013-01-31 14:16:00,69.0,58.4,30.04,NNW,329,6.0,13.0,69,0.00,,,0.00,VWS V14.00,2013-01-31 19:16:00,
2013-01-31 14:21:00,69.1,58.5,30.04,NW,323,7.0,13.0,69,0.00,,,0.00,VWS V14.00,2013-01-31 19:21:00,
2013-01-31 14:26:00,69.1,58.1,30.04,WNW,302,6.0,13.0,68,0.00,,,0.00,VWS V14.00,2013-01-31 19:26:00,
2013-01-31 14:31:00,69.0,57.2,30.04,NNW,344,5.0,11.0,66,0.00,,,0.00,VWS V14.00,2013-01-31 19:31:00,
2013-01-31 14:36:00,69.3,57.9,30.04,WNW,296,4.0,11.0,67,0.00,,,0.00,VWS V14.00,2013-01-31 19:36:00,
2013-01-31 14:41:00,69.6,57.8,30.05,North,355,6.0,11.0,66,0.00,,,0.00,VWS V14.00,2013-01-31 19:41:00,
2013-01-31 14:46:00,69.7,58.3,30.05,NE,38,4.0,8.0,67,0.00,,,0.00,VWS V14.00,2013-01-31 19:46:00,
2013-01-31 14:51:00,69.4,57.1,30.04,NNW,338,4.0,9.0,65,0.00,,,0.00,VWS V14.00,2013-01-31 19:51:00,
2013-01-31 14:56:00,69.3,54.8,30.04,WNW,303,2.0,11.0,60,0.00,,,0.00,VWS V14.00,2013-01-31 19:56:00,
2013-01-31 15:01:00,69.7,55.7,30.05,NNW,338,5.0,9.0,61,0.00,,,0.00,VWS V14.00,2013-01-31 20:01:00,
2013-01-31 15:06:00,69.8,52.9,30.05,NW,304,6.0,13.0,55,0.00,,,0.00,VWS V14.00,2013-01-31 20:06:00,
2013-01-31 15:11:00,69.9,53.0,30.05,North,5,7.0,13.0,55,0.00,,,0.00,VWS V14.00,2013-01-31 20:11:00,
2013-01-31 15:16:00,69.9,53.5,30.05,NW,321,6.0,9.0,56,0.00,,,0.00,VWS V14.00,2013-01-31 20:16:00,
2013-01-31 15:21:00,69.7,54.3,30.05,NNW,328,12.0,12.0,58,0.00,,,0.00,VWS V14.00,2013-01-31 20:21:00,
2013-01-31 15:26:00,69.6,53.7,30.05,NNW,338,5.0,12.0,57,0.00,,,0.00,VWS V14.00,2013-01-31 20:26:00,
2013-01-31 15:31:00,69.7,54.3,30.04,North,349,4.0,5.0,58,0.00,,,0.00,VWS V14.00,2013-01-31 20:31:00,
2013-01-31 15:36:00,69.6,53.2,30.05,NW,309,5.0,11.0,56,0.00,,,0.00,VWS V14.00,2013-01-31 20:36:00,
2013-01-31 15:41:00,69.7,53.3,30.05,NW,317,5.0,12.0,56,0.00,,,0.00,VWS V14.00,2013-01-31 20:41:00,
2013-01-31 15:46:00,69.6,53.2,30.04,NNW,330,5.0,12.0,56,0.00,,,0.00,VWS V14.00,2013-01-31 20:46:00,
2013-01-31 15:51:00,69.7,53.3,30.05,NNW,327,7.0,13.0,56,0.00,,,0.00,VWS V14.00,2013-01-31 20:51:00,
2013-01-31 15:56:00,69.7,52.3,30.05,WNW,292,5.0,13.0,54,0.00,,,0.00,VWS V14.00,2013-01-31 20:56:00,
2013-01-31 16:01:00,70.0,52.6,30.05,NNW,338,5.0,11.0,54,0.00,,,0.00,VWS V14.00,2013-01-31 21:01:00,
2013-01-31 16:06:00,70.2,52.8,30.05,WNW,296,7.0,11.0,54,0.00,,,0.00,VWS V14.00,2013-01-31 21:06:00,
2013-01-31 16:11:00,70.3,52.9,30.05,NW,313,5.0,11.0,54,0.00,,,0.00,VWS V14.00,2013-01-31 21:11:00,
2013-01-31 16:16:00,70.4,52.0,30.05,NNW,333,7.0,12.0,52,0.00,,,0.00,VWS V14.00,2013-01-31 21:16:00,
2013-01-31 16:21:00,70.3,51.3,30.05,NW,312,8.0,12.0,51,0.00,,,0.00,VWS V14.00,2013-01-31 21:21:00,
2013-01-31 16:26:00,70.2,51.8,30.05,North,355,6.0,12.0,52,0.00,,,0.00,VWS V14.00,2013-01-31 21:26:00,
2013-01-31 16:31:00,70.0,50.5,30.05,NNW,345,8.0,11.0,50,0.00,,,0.00,VWS V14.00,2013-01-31 21:31:00,
2013-01-31 16:36:00,69.8,50.3,30.05,North,11,4.0,11.0,50,0.00,,,0.00,VWS V14.00,2013-01-31 21:36:00,
2013-01-31 16:41:00,69.8,49.2,30.06,NW,313,9.0,12.0,48,0.00,,,0.00,VWS V14.00,2013-01-31 21:41:00,
2013-01-31 16:46:00,69.7,48.6,30.06,NNW,339,12.0,12.0,47,0.00,,,0.00,VWS V14.00,2013-01-31 21:46:00,
2013-01-31 16:51:00,69.4,47.7,30.06,NNE,30,4.0,12.0,46,0.00,,,0.00,VWS V14.00,2013-01-31 21:51:00,
2013-01-31 16:56:00,68.7,45.9,30.06,North,355,6.0,13.0,44,0.00,,,0.00,VWS V14.00,2013-01-31 21:56:00,
2013-01-31 17:01:00,68.3,45.6,30.06,NNE,13,3.0,13.0,44,0.00,,,0.00,VWS V14.00,2013-01-31 22:01:00,
2013-01-31 17:06:00,68.0,45.3,30.07,North,5,7.0,13.0,44,0.00,,,0.00,VWS V14.00,2013-01-31 22:06:00,
2013-01-31 17:11:00,67.7,44.4,30.06,North,5,6.0,13.0,43,0.00,,,0.00,VWS V14.00,2013-01-31 22:11:00,
2013-01-31 17:16:00,67.4,44.2,30.07,North,355,6.0,10.0,43,0.00,,,0.00,VWS V14.00,2013-01-31 22:16:00,
2013-01-31 17:21:00,67.1,45.7,30.07,North,360,4.0,10.0,46,0.00,,,0.00,VWS V14.00,2013-01-31 22:21:00,
2013-01-31 17:26:00,66.9,45.5,30.07,NNW,332,2.0,10.0,46,0.00,,,0.00,VWS V14.00,2013-01-31 22:26:00,
2013-01-31 17:31:00,66.7,47.0,30.07,North,355,10.0,10.0,49,0.00,,,0.00,VWS V14.00,2013-01-31 22:31:00,
2013-01-31 17:36:00,66.5,47.3,30.07,North,349,8.0,11.0,50,0.00,,,0.00,VWS V14.00,2013-01-31 22:36:00,
2013-01-31 17:41:00,66.2,47.6,30.07,NNW,344,2.0,11.0,51,0.00,,,0.00,VWS V14.00,2013-01-31 22:41:00,
2013-01-31 17:46:00,65.8,46.7,30.08,NNW,331,1.0,8.0,50,0.00,,,0.00,VWS V14.00,2013-01-31 22:46:00,
2013-01-31 17:51:00,65.4,45.2,30.08,NNW,329,7.0,12.0,48,0.00,,,0.00,VWS V14.00,2013-01-31 22:51:00,
2013-01-31 17:56:00,65.2,45.0,30.08,NNW,333,8.0,12.0,48,0.00,,,0.00,VWS V14.00,2013-01-31 22:56:00,
2013-01-31 18:01:00,64.9,44.8,30.08,NNW,336,6.0,6.0,48,0.00,,,0.00,VWS V14.00,2013-01-31 23:01:00,
2013-01-31 18:06:00,64.5,43.8,30.09,North,10,3.0,9.0,47,0.00,,,0.00,VWS V14.00,2013-01-31 23:06:00,
2013-01-31 18:11:00,64.2,42.4,30.08,NNW,348,6.0,9.0,45,0.00,,,0.00,VWS V14.00,2013-01-31 23:11:00,
2013-01-31 18:16:00,63.9,41.0,30.09,NNW,332,5.0,10.0,43,0.00,,,0.00,VWS V14.00,2013-01-31 23:16:00,
2013-01-31 18:21:00,63.6,41.9,30.09,North,11,4.0,10.0,45,0.00,,,0.00,VWS V14.00,2013-01-31 23:21:00,
2013-01-31 18:26:00,63.2,39.8,30.09,North,349,2.0,10.0,42,0.00,,,0.00,VWS V14.00,2013-01-31 23:26:00,
2013-01-31 18:31:00,63.0,39.6,30.09,North,9,5.0,5.0,42,0.00,,,0.00,VWS V14.00,2013-01-31 23:31:00,
2013-01-31 18:36:00,62.7,39.9,30.09,NNE,24,5.0,8.0,43,0.00,,,0.00,VWS V14.00,2013-01-31 23:36:00,
2013-01-31 18:41:00,62.5,40.3,30.09,NNE,24,6.0,10.0,44,0.00,,,0.00,VWS V14.00,2013-01-31 23:41:00,
2013-01-31 18:46:00,62.2,40.6,30.09,North,355,4.0,8.0,45,0.00,,,0.00,VWS V14.00,2013-01-31 23:46:00,
2013-01-31 18:51:00,61.9,40.3,30.10,NNW,344,2.0,11.0,45,0.00,,,0.00,VWS V14.00,2013-01-31 23:51:00,
2013-01-31 18:56:00,61.6,39.5,30.10,North,350,4.0,11.0,44,0.00,,,0.00,VWS V14.00,2013-01-31 23:56:00,
2013-01-31 19:01:00,61.2,39.7,30.10,NNE,13,1.0,7.0,45,0.00,,,0.00,VWS V14.00,2013-02-01 00:01:00,
2013-01-31 19:06:00,60.9,39.4,30.10,North,5,0.0,8.0,45,0.00,,,0.00,VWS V14.00,2013-02-01 00:06:00,
2013-01-31 19:11:00,60.7,40.4,30.10,NW,324,4.0,8.0,47,0.00,,,0.00,VWS V14.00,2013-02-01 00:11:00,
2013-01-31 19:16:00,60.3,38.9,30.11,North,5,5.0,7.0,45,0.00,,,0.00,VWS V14.00,2013-02-01 00:16:00,
2013-01-31 19:21:00,60.0,38.6,30.11,North,355,6.0,9.0,45,0.00,,,0.00,VWS V14.00,2013-02-01 00:21:00,
2013-01-31 19:26:00,59.7,38.3,30.11,NNE,14,2.0,10.0,45,0.00,,,0.00,VWS V14.00,2013-02-01 00:26:00,
2013-01-31 19:31:00,59.5,38.7,30.11,NNW,329,5.0,10.0,46,0.00,,,0.00,VWS V14.00,2013-02-01 00:31:00,
2013-01-31 19:36:00,59.2,38.5,30.11,North,360,6.0,10.0,46,0.00,,,0.00,VWS V14.00,2013-02-01 00:36:00,
2013-01-31 19:41:00,58.9,38.2,30.12,NNW,336,7.0,10.0,46,0.00,,,0.00,VWS V14.00,2013-02-01 00:41:00,
2013-01-31 19:46:00,58.7,38.0,30.12,NW,312,2.0,8.0,46,0.00,,,0.00,VWS V14.00,2013-02-01 00:46:00,
2013-01-31 19:51:00,58.5,38.4,30.12,NNW,340,2.0,9.0,47,0.00,,,0.00,VWS V14.00,2013-02-01 00:51:00,
2013-01-31 19:56:00,58.2,39.2,30.12,NW,322,2.0,9.0,49,0.00,,,0.00,VWS V14.00,2013-02-01 00:56:00,
2013-01-31 20:01:00,57.9,38.9,30.12,North,350,5.0,7.0,49,0.00,,,0.00,VWS V14.00,2013-02-01 01:01:00,
2013-01-31 20:06:00,57.7,38.2,30.13,North,355,4.0,10.0,48,0.00,,,0.00,VWS V14.00,2013-02-01 01:06:00,
2013-01-31 20:11:00,57.4,38.4,30.13,North,5,12.0,12.0,49,0.00,,,0.00,VWS V14.00,2013-02-01 01:11:00,
2013-01-31 20:16:00,57.2,37.7,30.13,NW,325,11.0,12.0,48,0.00,,,0.00,VWS V14.00,2013-02-01 01:16:00,
2013-01-31 20:21:00,57.1,38.1,30.13,NNW,334,4.0,12.0,49,0.00,,,0.00,VWS V14.00,2013-02-01 01:21:00,
2013-01-31 20:26:00,56.9,38.5,30.14,North,355,2.0,12.0,50,0.00,,,0.00,VWS V14.00,2013-02-01 01:26:00,
2013-01-31 20:31:00,56.7,38.3,30.14,NW,318,7.0,9.0,50,0.00,,,0.00,VWS V14.00,2013-02-01 01:31:00,
2013-01-31 20:36:00,56.5,38.6,30.14,North,351,8.0,9.0,51,0.00,,,0.00,VWS V14.00,2013-02-01 01:36:00,
2013-01-31 20:41:00,56.3,38.4,30.14,NW,323,5.0,9.0,51,0.00,,,0.00,VWS V14.00,2013-02-01 01:41:00,
2013-01-31 20:46:00,56.1,37.7,30.14,North,350,2.0,9.0,50,0.00,,,0.00,VWS V14.00,2013-02-01 01:46:00,
2013-01-31 20:51:00,55.9,38.0,30.14,NNW,340,5.0,11.0,51,0.00,,,0.00,VWS V14.00,2013-02-01 01:51:00,
2013-01-31 20:56:00,55.8,38.0,30.14,NNW,331,6.0,11.0,51,0.00,,,0.00,VWS V14.00,2013-02-01 01:56:00,
2013-01-31 21:01:00,55.7,37.9,30.15,NNE,14,5.0,8.0,51,0.00,,,0.00,VWS V14.00,2013-02-01 02:01:00,
2013-01-31 21:06:00,55.6,37.8,30.15,NNW,348,5.0,9.0,51,0.00,,,0.00,VWS V14.00,2013-02-01 02:06:00,
2013-01-31 21:11:00,55.4,38.1,30.15,NNW,344,8.0,10.0,52,0.00,,,0.00,VWS V14.00,2013-02-01 02:11:00,
2013-01-31 21:16:00,55.3,38.0,30.15,North,360,5.0,8.0,52,0.00,,,0.00,VWS V14.00,2013-02-01 02:16:00,
2013-01-31 21:21:00,55.1,38.3,30.15,NW,320,4.0,8.0,53,0.00,,,0.00,VWS V14.00,2013-02-01 02:21:00,
2013-01-31 21:26:00,55.0,38.2,30.15,NE,34,1.0,8.0,53,0.00,,,0.00,VWS V14.00,2013-02-01 02:26:00,
2013-01-31 21:31:00,54.8,38.5,30.16,NNW,343,7.0,7.0,54,0.00,,,0.00,VWS V14.00,2013-02-01 02:31:00,
2013-01-31 21:36:00,54.6,38.8,30.16,NNW,336,4.0,9.0,55,0.00,,,0.00,VWS V14.00,2013-02-01 02:36:00,
2013-01-31 21:41:00,54.4,38.1,30.15,North,11,0.0,9.0,54,0.00,,,0.00,VWS V14.00,2013-02-01 02:41:00,
2013-01-31 21:46:00,54.3,38.0,30.16,NNW,340,2.0,6.0,54,0.00,,,0.00,VWS V14.00,2013-02-01 02:46:00,
2013-01-31 21:51:00,54.1,38.8,30.15,North,355,1.0,7.0,56,0.00,,,0.00,VWS V14.00,2013-02-01 02:51:00,
2013-01-31 21:56:00,53.9,38.6,30.16,North,11,4.0,7.0,56,0.00,,,0.00,VWS V14.00,2013-02-01 02:56:00,
2013-01-31 22:01:00,53.8,38.5,30.16,North,351,7.0,9.0,56,0.00,,,0.00,VWS V14.00,2013-02-01 03:01:00,
2013-01-31 22:06:00,53.7,38.4,30.16,NNW,343,2.0,9.0,56,0.00,,,0.00,VWS V14.00,2013-02-01 03:06:00,
2013-01-31 22:11:00,53.7,38.4,30.15,North,9,3.0,9.0,56,0.00,,,0.00,VWS V14.00,2013-02-01 03:11:00,
2013-01-31 22:16:00,53.6,38.8,30.16,North,5,0.0,6.0,57,0.00,,,0.00,VWS V14.00,2013-02-01 03:16:00,
2013-01-31 22:21:00,53.4,38.6,30.16,NNE,13,1.0,6.0,57,0.00,,,0.00,VWS V14.00,2013-02-01 03:21:00,
2013-01-31 22:26:00,53.3,38.0,30.16,NE,34,4.0,6.0,56,0.00,,,0.00,VWS V14.00,2013-02-01 03:26:00,
2013-01-31 22:31:00,53.2,37.9,30.16,North,355,4.0,9.0,56,0.00,,,0.00,VWS V14.00,2013-02-01 03:31:00,
2013-01-31 22:36:00,53.1,38.3,30.17,NNW,345,5.0,9.0,57,0.00,,,0.00,VWS V14.00,2013-02-01 03:36:00,
2013-01-31 22:41:00,53.0,38.6,30.17,North,351,1.0,9.0,58,0.00,,,0.00,VWS V14.00,2013-02-01 03:41:00,
2013-01-31 22:46:00,52.8,37.5,30.17,NNE,28,7.0,7.0,56,0.00,,,0.00,VWS V14.00,2013-02-01 03:46:00,
2013-01-31 22:51:00,52.7,37.5,30.17,North,5,3.0,8.0,56,0.00,,,0.00,VWS V14.00,2013-02-01 03:51:00,
2013-01-31 22:56:00,52.6,37.8,30.17,NNW,330,6.0,8.0,57,0.00,,,0.00,VWS V14.00,2013-02-01 03:56:00,
2013-01-31 23:01:00,52.5,37.7,30.18,NNW,336,7.0,7.0,57,0.00,,,0.00,VWS V14.00,2013-02-01 04:01:00,
2013-01-31 23:06:00,52.4,38.1,30.17,North,355,1.0,8.0,58,0.00,,,0.00,VWS V14.00,2013-02-01 04:06:00,
2013-01-31 23:11:00,52.3,37.5,30.18,NE,46,4.0,8.0,57,0.00,,,0.00,VWS V14.00,2013-02-01 04:11:00,
2013-01-31 23:16:00,52.2,37.4,30.18,NNW,340,2.0,9.0,57,0.00,,,0.00,VWS V14.00,2013-02-01 04:16:00,
2013-01-31 23:21:00,52.1,37.3,30.18,North,351,6.0,9.0,57,0.00,,,0.00,VWS V14.00,2013-02-01 04:21:00,
2013-01-31 23:26:00,52.0,37.2,30.17,North,355,1.0,9.0,57,0.00,,,0.00,VWS V14.00,2013-02-01 04:26:00,
2013-01-31 23:31:00,52.0,38.1,30.17,North,355,0.0,1.0,59,0.00,,,0.00,VWS V14.00,2013-02-01 04:31:00,
2013-01-31 23:36:00,51.8,37.9,30.18,NNE,24,6.0,7.0,59,0.00,,,0.00,VWS V14.00,2013-02-01 04:36:00,
2013-01-31 23:41:00,51.8,37.5,30.17,NNE,19,3.0,7.0,58,0.00,,,0.00,VWS V14.00,2013-02-01 04:41:00,
2013-01-31 23:46:00,51.7,37.8,30.18,North,5,9.0,10.0,59,0.00,,,0.00,VWS V14.00,2013-02-01 04:46:00,
2013-01-31 23:51:00,51.6,37.8,30.18,NNE,26,4.0,10.0,59,0.00,,,0.00,VWS V14.00,2013-02-01 04:51:00,
2013-01-31 23:56:00,51.5,37.7,30.18,NE,36,2.0,10.0,59,0.00,,,0.00,VWS V14.00,2013-02-01 04:56:00,